createdAt,value
2023-01-09T00:02:53.569Z,82.42
2023-01-09T00:06:00.251Z,75.21
2023-01-09T00:09:07.150Z,73.49
2023-01-09T00:12:13.807Z,77.48
2023-01-09T00:15:19.965Z,79.53
2023-01-09T00:18:29.238Z,84.00
2023-01-09T00:21:41.877Z,73.68
2023-01-09T00:25:03.791Z,83.37
2023-01-09T00:28:13.987Z,73.65
2023-01-09T00:31:22.588Z,77.26
2023-01-09T00:34:31.569Z,67.57
2023-01-09T00:37:38.121Z,69.38
2023-01-09T00:40:43.999Z,67.86
2023-01-09T00:43:55.894Z,71.06
2023-01-09T00:47:11.121Z,68.95
2023-01-09T00:50:29.443Z,69.92
2023-01-09T00:53:37.482Z,68.98
2023-01-09T00:56:44.568Z,69.64
2023-01-09T00:59:50.450Z,70.84
2023-01-09T01:02:57.123Z,69.44
2023-01-09T01:06:18.012Z,70.33
2023-01-09T01:09:24.519Z,75.62
2023-01-09T01:12:30.392Z,68.79
2023-01-09T01:15:37.300Z,69.64
2023-01-09T01:18:44.623Z,70.92
2023-01-09T01:21:54.489Z,69.46
2023-01-09T01:25:00.368Z,72.69
2023-01-09T01:28:07.785Z,72.09
2023-01-09T01:31:20.880Z,74.00
2023-01-09T01:34:27.697Z,67.38
2023-01-09T01:37:39.262Z,67.41
2023-01-09T01:40:45.964Z,68.04
2023-01-09T01:43:57.357Z,63.58
2023-01-09T01:47:04.334Z,66.70
2023-01-09T01:50:22.063Z,68.47
2023-01-09T01:53:42.328Z,70.27
2023-01-09T01:56:57.070Z,65.69
2023-01-09T02:00:07.524Z,65.59
2023-01-09T02:03:18.690Z,67.32
2023-01-09T02:06:25.550Z,69.09
2023-01-09T02:09:34.942Z,69.19
2023-01-09T02:12:41.564Z,69.75
2023-01-09T02:16:20.543Z,71.38
2023-01-09T02:20:30.900Z,71.51
2023-01-09T02:24:20.064Z,67.41
2023-01-09T02:28:23.029Z,69.16
2023-01-09T02:31:47.650Z,68.88
2023-01-09T02:35:16.888Z,71.21
2023-01-09T02:38:36.770Z,71.40
2023-01-09T02:41:56.037Z,72.51
2023-01-09T02:45:01.989Z,76.13
2023-01-09T02:48:14.523Z,75.84
2023-01-09T02:51:39.100Z,77.22
2023-01-09T02:55:08.112Z,74.01
2023-01-09T02:58:33.894Z,72.21
2023-01-09T03:02:09.104Z,76.80
2023-01-09T03:05:28.785Z,79.12
2023-01-09T03:08:45.301Z,86.09
2023-01-09T03:12:04.742Z,89.58
2023-01-09T03:15:18.391Z,88.30
2023-01-09T03:18:32.056Z,91.13
2023-01-09T03:21:43.903Z,93.34
2023-01-09T03:24:49.919Z,88.79
2023-01-09T03:28:02.073Z,91.83
2023-01-09T03:31:08.285Z,92.00
2023-01-09T03:34:15.058Z,87.94
2023-01-09T03:37:23.409Z,84.67
2023-01-09T03:40:30.068Z,87.09
2023-01-09T03:43:36.071Z,85.18
2023-01-09T03:46:42.606Z,85.38
2023-01-09T03:49:48.425Z,91.50
2023-01-09T03:52:57.631Z,88.44
2023-01-09T03:56:03.834Z,86.50
2023-01-09T03:59:10.619Z,80.11
2023-01-09T04:02:16.547Z,77.06
2023-01-09T04:05:23.201Z,77.60
2023-01-09T04:08:31.760Z,81.12
2023-01-09T04:11:38.556Z,81.35
2023-01-09T04:14:44.358Z,78.81
2023-01-09T04:17:52.222Z,78.76
2023-01-09T04:20:58.344Z,81.42
2023-01-09T04:24:09.289Z,79.80
2023-01-09T04:27:15.354Z,77.42
2023-01-09T04:30:22.805Z,78.58
2023-01-09T04:33:28.817Z,80.99
2023-01-09T04:36:36.407Z,80.98
2023-01-09T04:39:46.190Z,80.24
2023-01-09T04:42:52.859Z,77.66
2023-01-09T04:45:58.910Z,78.56
2023-01-09T04:49:05.606Z,82.06
2023-01-09T04:52:11.423Z,84.13
2023-01-09T04:55:20.785Z,83.75
2023-01-09T04:58:26.614Z,80.40
2023-01-09T05:01:33.587Z,84.11
2023-01-09T05:04:39.828Z,83.84
2023-01-09T05:07:47.168Z,83.40
2023-01-09T05:10:55.568Z,78.53
2023-01-09T05:14:02.408Z,79.38
2023-01-09T05:17:08.225Z,80.71
2023-01-09T05:20:15.900Z,83.75
2023-01-09T05:23:22.105Z,74.69
2023-01-09T05:26:31.975Z,73.12
2023-01-09T05:29:38.311Z,72.19
2023-01-09T05:32:45.318Z,70.65
2023-01-09T05:35:51.233Z,68.97
2023-01-09T05:38:58.046Z,66.84
2023-01-09T05:42:07.030Z,70.19
2023-01-09T05:45:15.374Z,69.64
2023-01-09T05:48:21.261Z,67.28
2023-01-09T05:51:28.008Z,65.35
2023-01-09T05:54:34.455Z,65.82
2023-01-09T05:57:44.143Z,65.74
2023-01-09T06:00:50.066Z,65.17
2023-01-09T06:03:56.923Z,64.68
2023-01-09T06:07:02.952Z,63.61
2023-01-09T06:10:13.873Z,63.48
2023-01-09T06:13:22.319Z,62.95
2023-01-09T06:16:28.944Z,63.13
2023-01-09T06:19:34.921Z,63.00
2023-01-09T06:22:41.685Z,63.40
2023-01-09T06:25:47.573Z,61.40
2023-01-09T06:28:57.920Z,60.98
2023-01-09T06:32:03.678Z,61.23
2023-01-09T06:35:11.981Z,60.21
2023-01-09T06:38:18.048Z,59.25
2023-01-09T06:41:24.793Z,56.26
2023-01-09T06:44:36.802Z,56.21
2023-01-09T06:47:43.959Z,57.48
2023-01-09T06:50:51.384Z,58.20
2023-01-09T06:53:59.938Z,59.41
2023-01-09T06:57:06.060Z,59.96
2023-01-09T07:00:16.886Z,61.43
2023-01-09T07:03:22.791Z,62.12
2023-01-09T07:06:29.668Z,61.21
2023-01-09T07:09:35.412Z,63.41
2023-01-09T07:12:42.075Z,63.29
2023-01-09T07:15:50.625Z,64.64
2023-01-09T07:18:57.416Z,65.76
2023-01-09T07:22:03.321Z,66.36
2023-01-09T07:25:11.099Z,67.31
2023-01-09T07:28:16.861Z,67.18
2023-01-09T07:31:28.497Z,65.95
2023-01-09T07:34:34.466Z,68.06
2023-01-09T07:37:41.237Z,70.56
2023-01-09T07:40:47.136Z,70.57
2023-01-09T07:43:53.815Z,69.51
2023-01-09T07:47:02.379Z,69.32
2023-01-09T07:50:11.187Z,68.43
2023-01-09T07:53:17.085Z,69.79
2023-01-09T07:56:23.842Z,69.83
2023-01-09T07:59:30.056Z,67.68
2023-01-09T08:02:39.477Z,65.64
2023-01-09T08:05:45.462Z,66.76
2023-01-09T08:08:52.279Z,67.54
2023-01-09T08:11:58.108Z,69.34
2023-01-09T08:15:04.817Z,75.75
2023-01-09T08:18:13.236Z,69.55
2023-01-09T08:21:19.911Z,69.41
2023-01-09T08:24:25.718Z,71.00
2023-01-09T08:27:32.492Z,68.15
2023-01-09T08:30:38.353Z,64.63
2023-01-09T08:33:48.010Z,64.09
2023-01-09T08:36:54.355Z,63.50
2023-01-09T08:40:01.417Z,64.87
2023-01-09T08:43:19.636Z,62.59
2023-01-09T08:46:38.849Z,59.86
2023-01-09T08:49:47.424Z,60.09
2023-01-09T08:52:54.368Z,60.68
2023-01-09T08:56:00.724Z,61.19
2023-01-09T08:59:07.387Z,59.76
2023-01-09T09:02:13.683Z,59.70
2023-01-09T09:05:24.166Z,60.14
2023-01-09T09:08:30.114Z,58.40
2023-01-09T09:11:37.666Z,59.60
2023-01-09T09:14:55.840Z,59.80
2023-01-09T09:18:07.160Z,55.27
2023-01-09T09:21:15.570Z,51.79
2023-01-09T09:24:22.386Z,44.49
2023-01-09T09:27:28.524Z,38.46
2023-01-09T09:30:35.264Z,38.37
2023-01-09T09:33:41.072Z,31.60
2023-01-09T09:36:50.707Z,29.25
2023-01-09T09:39:57.956Z,27.99
2023-01-09T09:43:57.152Z,27.70
2023-01-09T09:47:21.920Z,26.49
2023-01-09T09:51:10.962Z,23.19
2023-01-09T09:54:30.320Z,22.04
2023-01-09T09:57:41.658Z,19.36
2023-01-09T10:00:47.547Z,18.33
2023-01-09T10:04:02.404Z,15.62
2023-01-09T10:07:21.083Z,14.82
2023-01-09T10:10:45.486Z,12.41
2023-01-09T10:14:05.834Z,12.11
2023-01-09T10:17:54.636Z,10.54
2023-01-09T10:21:09.687Z,9.18
2023-01-09T10:24:40.769Z,7.97
2023-01-09T10:28:17.670Z,8.68
2023-01-09T10:31:40.921Z,8.46
2023-01-09T10:35:06.853Z,8.85
2023-01-09T10:38:22.980Z,8.13
2023-01-09T10:41:40.216Z,7.55
2023-01-09T10:44:59.596Z,7.80
2023-01-09T10:48:20.934Z,8.61
2023-01-09T10:51:39.011Z,9.23
2023-01-09T10:54:58.355Z,10.38
2023-01-09T10:58:15.080Z,10.95
2023-01-09T11:01:31.410Z,11.50
2023-01-09T11:04:43.583Z,12.18
2023-01-09T11:07:59.135Z,13.63
2023-01-09T11:11:07.776Z,13.64
2023-01-09T11:14:19.740Z,13.66
2023-01-09T11:17:30.658Z,12.97
2023-01-09T11:20:36.462Z,12.07
2023-01-09T11:23:43.047Z,12.17
2023-01-09T11:26:50.355Z,11.54
2023-01-09T11:30:26.507Z,11.46
2023-01-09T11:33:43.862Z,11.68
2023-01-09T11:36:55.647Z,13.22
2023-01-09T11:40:04.385Z,12.43
2023-01-09T11:43:22.851Z,13.89
2023-01-09T11:46:41.092Z,13.61
2023-01-09T11:49:51.625Z,12.10
2023-01-09T11:53:18.460Z,11.74
2023-01-09T11:56:26.253Z,11.65
2023-01-09T11:59:34.747Z,11.95
2023-01-09T12:03:15.910Z,10.43
2023-01-09T12:06:40.000Z,9.44
2023-01-09T12:10:01.320Z,10.24
2023-01-09T12:13:26.511Z,10.45
2023-01-09T12:16:48.993Z,10.65
2023-01-09T12:20:39.137Z,11.93
2023-01-09T12:24:31.657Z,11.52
2023-01-09T12:28:22.235Z,11.53
2023-01-09T12:32:00.755Z,12.84
2023-01-09T12:35:27.390Z,11.55
2023-01-09T12:38:55.354Z,11.93
2023-01-09T12:42:37.218Z,10.81
2023-01-09T12:46:05.887Z,10.97
2023-01-09T12:49:36.424Z,9.94
2023-01-09T12:52:52.871Z,10.72
2023-01-09T12:56:12.117Z,12.32
2023-01-09T12:59:33.376Z,13.35
2023-01-09T13:02:50.448Z,14.71
2023-01-09T13:06:02.149Z,13.32
2023-01-09T13:09:27.576Z,14.30
2023-01-09T13:12:45.066Z,15.56
2023-01-09T13:16:00.045Z,17.43
2023-01-09T13:19:18.578Z,16.80
2023-01-09T13:22:31.101Z,17.59
2023-01-09T13:25:46.882Z,17.61
2023-01-09T13:29:03.426Z,16.66
2023-01-09T13:32:43.947Z,15.59
2023-01-09T13:35:57.593Z,11.30
2023-01-09T13:39:06.276Z,11.57
2023-01-09T13:42:34.493Z,12.13
2023-01-09T13:45:45.188Z,12.81
2023-01-09T13:48:51.372Z,13.28
2023-01-09T13:52:05.052Z,16.14
2023-01-09T13:55:36.406Z,15.55
2023-01-09T13:59:09.476Z,14.94
2023-01-09T14:03:07.161Z,14.59
2023-01-09T14:06:22.720Z,16.02
2023-01-09T14:09:30.846Z,15.36
2023-01-09T14:12:47.068Z,13.93
2023-01-09T14:16:04.570Z,15.26
2023-01-09T14:19:36.517Z,15.94
2023-01-09T14:22:50.638Z,16.07
2023-01-09T14:26:06.851Z,17.05
2023-01-09T14:29:47.614Z,18.57
2023-01-09T14:32:59.993Z,17.47
2023-01-09T14:36:21.808Z,18.82
2023-01-09T14:39:35.319Z,18.73
2023-01-09T14:42:47.459Z,17.86
2023-01-09T14:45:57.544Z,17.74
2023-01-09T14:49:19.597Z,18.87
2023-01-09T14:52:38.296Z,19.31
2023-01-09T14:55:55.745Z,15.13
2023-01-09T14:59:14.892Z,14.76
2023-01-09T15:02:22.813Z,15.21
2023-01-09T15:05:31.826Z,16.56
2023-01-09T15:08:42.218Z,16.22
2023-01-09T15:11:49.933Z,18.55
2023-01-09T15:15:02.718Z,16.05
2023-01-09T15:18:13.039Z,14.83
2023-01-09T15:21:25.654Z,19.35
2023-01-09T15:24:37.875Z,17.24
2023-01-09T15:27:51.474Z,19.42
2023-01-09T15:31:05.809Z,24.68
2023-01-09T15:34:23.019Z,30.25
2023-01-09T15:37:39.237Z,32.10
2023-01-09T15:40:57.594Z,30.62
2023-01-09T15:44:06.541Z,30.87
2023-01-09T15:47:23.254Z,34.79
2023-01-09T15:50:32.851Z,32.17
2023-01-09T15:53:39.801Z,34.04
2023-01-09T15:56:49.378Z,37.81
2023-01-09T15:59:55.935Z,35.97
2023-01-09T16:03:15.924Z,35.62
2023-01-09T16:06:30.734Z,33.47
2023-01-09T16:09:38.057Z,29.56
2023-01-09T16:12:46.862Z,26.27
2023-01-09T16:15:57.551Z,26.80
2023-01-09T16:19:03.853Z,25.25
2023-01-09T16:22:25.972Z,24.51
2023-01-09T16:25:37.077Z,25.30
2023-01-09T16:28:46.286Z,27.35
2023-01-09T16:32:00.720Z,28.97
2023-01-09T16:35:17.565Z,26.27
2023-01-09T16:38:26.073Z,29.50
2023-01-09T16:41:45.680Z,30.77
2023-01-09T16:44:54.190Z,32.32
2023-01-09T16:48:01.325Z,30.72
2023-01-09T16:51:07.483Z,35.10
2023-01-09T16:54:14.132Z,54.55
2023-01-09T16:57:21.717Z,72.07
2023-01-09T17:00:32.182Z,77.24
2023-01-09T17:03:38.247Z,56.22
2023-01-09T17:06:46.580Z,51.62
2023-01-09T17:09:53.330Z,42.35
2023-01-09T17:13:00.049Z,36.79
2023-01-09T17:16:14.818Z,35.95
2023-01-09T17:19:26.321Z,30.79
2023-01-09T17:22:32.259Z,43.95
2023-01-09T17:25:52.104Z,125.93
2023-01-09T17:28:58.148Z,47.78
2023-01-09T17:32:08.163Z,32.35
2023-01-09T17:35:18.787Z,33.02
2023-01-09T17:38:25.757Z,32.27
2023-01-09T17:41:34.444Z,32.36
2023-01-09T17:44:41.162Z,32.04
2023-01-09T17:47:49.581Z,35.19
2023-01-09T17:50:56.216Z,34.57
2023-01-09T17:54:02.598Z,33.59
2023-01-09T17:57:16.356Z,35.69
2023-01-09T18:00:29.921Z,42.13
2023-01-09T18:03:39.147Z,46.79
2023-01-09T18:06:45.040Z,67.38
2023-01-09T18:09:51.708Z,58.80
2023-01-09T18:12:59.566Z,47.82
2023-01-09T18:16:06.819Z,48.24
2023-01-09T18:19:15.325Z,47.58
2023-01-09T18:22:21.874Z,45.63
2023-01-09T18:25:27.617Z,42.49
2023-01-09T18:28:34.230Z,40.01
2023-01-09T18:31:40.281Z,38.18
2023-01-09T18:34:49.577Z,53.26
2023-01-09T18:37:55.531Z,49.19
2023-01-09T18:41:02.765Z,39.18
2023-01-09T18:44:08.647Z,37.08
2023-01-09T18:47:15.504Z,41.08
2023-01-09T18:50:23.981Z,43.41
2023-01-09T18:53:30.663Z,56.42
2023-01-09T18:56:36.968Z,93.24
2023-01-09T18:59:43.754Z,40.32
2023-01-09T19:02:49.572Z,36.43
2023-01-09T19:06:03.608Z,34.97
2023-01-09T19:09:09.434Z,30.99
2023-01-09T19:12:17.163Z,24.85
2023-01-09T19:15:23.083Z,23.97
2023-01-09T19:18:31.836Z,23.87
2023-01-09T19:21:40.470Z,23.99
2023-01-09T19:24:47.180Z,23.44
2023-01-09T19:27:53.588Z,24.80
2023-01-09T19:31:06.059Z,34.68
2023-01-09T19:34:12.474Z,41.29
2023-01-09T19:37:22.107Z,55.54
2023-01-09T19:40:28.344Z,60.57
2023-01-09T19:43:35.283Z,83.95
2023-01-09T19:46:41.099Z,124.87
2023-01-09T19:49:47.748Z,81.96
2023-01-09T19:52:56.290Z,94.92
2023-01-09T19:56:18.285Z,103.27
2023-01-09T19:59:24.177Z,141.68
2023-01-09T20:02:31.765Z,177.22
2023-01-09T20:05:38.447Z,51.05
2023-01-09T20:08:52.880Z,148.69
2023-01-09T20:12:02.048Z,132.79
2023-01-09T20:15:15.007Z,75.93
2023-01-09T20:18:21.622Z,67.02
2023-01-09T20:21:31.264Z,58.20
2023-01-09T20:24:40.056Z,86.00
2023-01-09T20:27:46.741Z,110.74
2023-01-09T20:30:54.951Z,133.14
2023-01-09T20:34:02.592Z,51.62
2023-01-09T20:37:08.598Z,42.51
2023-01-09T20:40:18.623Z,43.84
2023-01-09T20:43:24.706Z,34.94
2023-01-09T20:46:33.997Z,50.81
2023-01-09T20:49:39.926Z,51.61
2023-01-09T20:52:46.593Z,41.93
2023-01-09T20:55:55.272Z,37.71
2023-01-09T20:59:06.409Z,38.72
2023-01-09T21:02:17.671Z,44.07
2023-01-09T21:05:24.384Z,38.27
2023-01-09T21:08:30.766Z,47.60
2023-01-09T21:11:40.089Z,39.89
2023-01-09T21:14:45.969Z,41.76
2023-01-09T21:17:52.857Z,44.74
2023-01-09T21:20:58.742Z,41.73
2023-01-09T21:24:07.665Z,45.88
2023-01-09T21:27:16.137Z,39.87
2023-01-09T21:30:22.895Z,52.28
2023-01-09T21:33:28.970Z,98.68
2023-01-09T21:36:36.356Z,124.29
2023-01-09T21:39:43.301Z,106.60
2023-01-09T21:43:06.213Z,144.34
2023-01-09T21:46:28.619Z,143.56
2023-01-09T21:49:36.257Z,53.02
2023-01-09T21:52:42.116Z,47.27
2023-01-09T21:55:48.774Z,54.84
2023-01-09T21:58:57.436Z,60.67
2023-01-09T22:02:04.352Z,60.07
2023-01-09T22:05:11.055Z,56.39
2023-01-09T22:08:18.010Z,47.77
2023-01-09T22:11:23.965Z,46.30
2023-01-09T22:14:33.442Z,48.72
2023-01-09T22:17:39.346Z,51.40
2023-01-09T22:20:47.765Z,51.90
2023-01-09T22:23:54.452Z,53.27
2023-01-09T22:27:01.371Z,50.67
2023-01-09T22:30:12.164Z,48.62
2023-01-09T22:33:19.094Z,46.24
2023-01-09T22:36:25.100Z,43.91
2023-01-09T22:39:31.813Z,41.84
2023-01-09T22:42:37.965Z,40.19
2023-01-09T22:45:47.208Z,37.89
2023-01-09T22:48:53.190Z,38.19
2023-01-09T22:52:00.029Z,36.95
2023-01-09T22:55:06.383Z,35.53
2023-01-09T22:58:13.054Z,38.44
2023-01-09T23:01:22.101Z,39.99
2023-01-09T23:04:28.895Z,36.80
2023-01-09T23:07:34.716Z,36.42
2023-01-09T23:10:41.624Z,38.47
2023-01-09T23:13:47.471Z,39.80
2023-01-09T23:16:56.922Z,39.30
2023-01-09T23:20:02.833Z,39.24
2023-01-09T23:23:09.960Z,38.50
2023-01-09T23:26:15.750Z,39.82
2023-01-09T23:29:22.919Z,36.62
2023-01-09T23:32:31.516Z,37.25
2023-01-09T23:35:38.343Z,36.24
2023-01-09T23:38:44.128Z,35.50
2023-01-09T23:42:03.281Z,34.57
2023-01-09T23:45:10.569Z,33.22
2023-01-09T23:48:22.025Z,31.97
2023-01-09T23:51:27.888Z,31.30
2023-01-09T23:54:34.496Z,31.48
2023-01-09T23:57:40.503Z,30.01
